Time,TemperatureF,DewpointF,PressureIn,WindDirection,WindDirectionDegrees,WindSpeedMPH,WindSpeedGustMPH,Humidity,HourlyPrecipIn,Conditions,Clouds,dailyrainin,SoftwareType,DateUTC
2013-04-22 00:02:00,50.0,13.0,-100.00,WNW,299,1.0,7.0,22,0.00,,,0.00,,2013-04-22 06:02:00,
2013-04-22 00:12:00,50.0,13.0,-100.00,WNW,299,1.0,7.0,22,0.00,,,0.00,,2013-04-22 06:12:00,
2013-04-22 00:21:00,50.0,13.0,-100.00,WNW,299,1.0,7.0,22,0.00,,,0.00,,2013-04-22 06:21:00,
2013-04-22 00:32:00,50.0,13.0,-100.00,WNW,299,1.0,7.0,22,0.00,,,0.00,,2013-04-22 06:32:00,
2013-04-22 00:40:00,43.0,12.0,-100.00,WNW,297,2.0,5.0,28,0.00,,,0.00,,2013-04-22 06:40:00,
2013-04-22 01:01:00,43.0,12.0,-100.00,WNW,297,2.0,5.0,28,0.00,,,0.00,,2013-04-22 07:01:00,
2013-04-22 01:12:00,43.0,12.0,-100.00,WNW,297,2.0,5.0,28,0.00,,,0.00,,2013-04-22 07:12:00,
2013-04-22 01:21:00,43.0,12.0,-100.00,WNW,297,2.0,5.0,28,0.00,,,0.00,,2013-04-22 07:21:00,
2013-04-22 01:32:00,43.0,12.0,-100.00,WNW,297,2.0,5.0,28,0.00,,,0.00,,2013-04-22 07:32:00,
2013-04-22 01:40:00,41.0,13.0,-100.00,West,280,2.0,7.0,31,0.00,,,0.00,,2013-04-22 07:40:00,
2013-04-22 02:02:00,41.0,13.0,-100.00,West,280,2.0,7.0,31,0.00,,,0.00,,2013-04-22 08:02:00,
2013-04-22 02:11:00,41.0,13.0,-100.00,West,280,2.0,7.0,31,0.00,,,0.00,,2013-04-22 08:11:00,
2013-04-22 02:22:00,41.0,13.0,-100.00,West,280,2.0,7.0,31,0.00,,,0.00,,2013-04-22 08:22:00,
2013-04-22 02:32:00,41.0,13.0,-100.00,West,280,2.0,7.0,31,0.00,,,0.00,,2013-04-22 08:32:00,
2013-04-22 02:40:00,40.0,12.0,-100.00,West,276,2.0,5.0,31,0.00,,,0.00,,2013-04-22 08:40:00,
2013-04-22 03:01:00,40.0,12.0,-100.00,West,276,2.0,5.0,31,0.00,,,0.00,,2013-04-22 09:01:00,
2013-04-22 03:11:00,40.0,12.0,-100.00,West,276,2.0,5.0,31,0.00,,,0.00,,2013-04-22 09:11:00,
2013-04-22 03:21:00,40.0,12.0,-100.00,West,276,2.0,5.0,31,0.00,,,0.00,,2013-04-22 09:21:00,
2013-04-22 03:33:00,40.0,12.0,-100.00,West,276,2.0,5.0,31,0.00,,,0.00,,2013-04-22 09:33:00,
2013-04-22 03:40:00,42.0,13.0,-100.00,West,276,2.0,6.0,30,0.00,,,0.00,,2013-04-22 09:40:00,
2013-04-22 04:03:00,42.0,13.0,-100.00,West,276,2.0,6.0,30,0.00,,,0.00,,2013-04-22 10:03:00,
2013-04-22 04:12:00,42.0,13.0,-100.00,West,276,2.0,6.0,30,0.00,,,0.00,,2013-04-22 10:12:00,
2013-04-22 04:22:00,42.0,13.0,-100.00,West,276,2.0,6.0,30,0.00,,,0.00,,2013-04-22 10:22:00,
2013-04-22 04:32:00,42.0,13.0,-100.00,West,276,2.0,6.0,30,0.00,,,0.00,,2013-04-22 10:32:00,
2013-04-22 04:40:00,41.0,13.0,-100.00,West,266,0.0,5.0,31,0.00,,,0.00,,2013-04-22 10:40:00,
2013-04-22 05:02:00,41.0,13.0,-100.00,West,266,0.0,5.0,31,0.00,,,0.00,,2013-04-22 11:02:00,
2013-04-22 05:12:00,41.0,13.0,-100.00,West,266,0.0,5.0,31,0.00,,,0.00,,2013-04-22 11:12:00,
2013-04-22 05:22:00,41.0,13.0,-100.00,West,266,0.0,5.0,31,0.00,,,0.00,,2013-04-22 11:22:00,
2013-04-22 05:32:00,41.0,13.0,-100.00,West,266,0.0,5.0,31,0.00,,,0.00,,2013-04-22 11:32:00,
2013-04-22 05:40:00,41.0,13.0,-100.00,NW,311,1.0,4.0,32,0.00,,,0.00,,2013-04-22 11:40:00,
2013-04-22 06:02:00,41.0,13.0,-100.00,NW,311,1.0,4.0,32,0.00,,,0.00,,2013-04-22 12:02:00,
2013-04-22 06:12:00,41.0,13.0,-100.00,NW,311,1.0,4.0,32,0.00,,,0.00,,2013-04-22 12:12:00,
2013-04-22 06:21:00,41.0,13.0,-100.00,NW,311,1.0,4.0,32,0.00,,,0.00,,2013-04-22 12:21:00,
2013-04-22 06:32:00,41.0,13.0,-100.00,NW,311,1.0,4.0,32,0.00,,,0.00,,2013-04-22 12:32:00,
2013-04-22 06:40:00,43.0,14.0,-100.00,NW,324,2.0,6.0,30,0.00,,,0.00,,2013-04-22 12:40:00,
2013-04-22 07:01:00,43.0,14.0,-100.00,NW,324,2.0,6.0,30,0.00,,,0.00,,2013-04-22 13:01:00,
2013-04-22 07:11:00,43.0,14.0,-100.00,NW,324,2.0,6.0,30,0.00,,,0.00,,2013-04-22 13:11:00,
2013-04-22 07:22:00,43.0,14.0,-100.00,NW,324,2.0,6.0,30,0.00,,,0.00,,2013-04-22 13:22:00,
2013-04-22 07:32:00,43.0,14.0,-100.00,NW,324,2.0,6.0,30,0.00,,,0.00,,2013-04-22 13:32:00,
2013-04-22 07:40:00,51.0,16.0,-100.00,ENE,77,3.0,6.0,24,0.00,,,0.00,,2013-04-22 13:40:00,
2013-04-22 08:02:00,51.0,16.0,-100.00,ENE,77,3.0,6.0,24,0.00,,,0.00,,2013-04-22 14:02:00,
2013-04-22 08:11:00,51.0,16.0,-100.00,ENE,77,3.0,6.0,24,0.00,,,0.00,,2013-04-22 14:11:00,
2013-04-22 08:21:00,51.0,16.0,-100.00,ENE,77,3.0,6.0,24,0.00,,,0.00,,2013-04-22 14:21:00,
2013-04-22 08:33:00,51.0,16.0,-100.00,ENE,77,3.0,6.0,24,0.00,,,0.00,,2013-04-22 14:33:00,
2013-04-22 08:40:00,55.0,16.0,-100.00,ENE,78,3.0,7.0,21,0.00,,,0.00,,2013-04-22 14:40:00,
2013-04-22 09:02:00,55.0,16.0,-100.00,ENE,78,3.0,7.0,21,0.00,,,0.00,,2013-04-22 15:02:00,
2013-04-22 09:12:00,55.0,16.0,-100.00,ENE,78,3.0,7.0,21,0.00,,,0.00,,2013-04-22 15:12:00,
2013-04-22 09:22:00,55.0,16.0,-100.00,ENE,78,3.0,7.0,21,0.00,,,0.00,,2013-04-22 15:22:00,
2013-04-22 09:33:00,55.0,16.0,-100.00,ENE,78,3.0,7.0,21,0.00,,,0.00,,2013-04-22 15:33:00,
2013-04-22 09:40:00,62.0,15.0,-100.00,SE,135,6.0,14.0,16,0.00,,,0.00,,2013-04-22 15:40:00,
2013-04-22 10:03:00,62.0,15.0,-100.00,SE,135,6.0,14.0,16,0.00,,,0.00,,2013-04-22 16:03:00,
2013-04-22 10:12:00,62.0,15.0,-100.00,SE,135,6.0,14.0,16,0.00,,,0.00,,2013-04-22 16:12:00,
2013-04-22 10:23:00,62.0,15.0,-100.00,SE,135,6.0,14.0,16,0.00,,,0.00,,2013-04-22 16:23:00,
2013-04-22 10:33:00,62.0,15.0,-100.00,SE,135,6.0,14.0,16,0.00,,,0.00,,2013-04-22 16:33:00,
2013-04-22 10:40:00,66.0,15.0,-100.00,East,82,7.0,14.0,14,0.00,,,0.00,,2013-04-22 16:40:00,
2013-04-22 11:02:00,66.0,15.0,-100.00,East,82,7.0,14.0,14,0.00,,,0.00,,2013-04-22 17:02:00,
2013-04-22 11:12:00,66.0,15.0,-100.00,East,82,7.0,14.0,14,0.00,,,0.00,,2013-04-22 17:12:00,
2013-04-22 11:22:00,66.0,15.0,-100.00,East,82,7.0,14.0,14,0.00,,,0.00,,2013-04-22 17:22:00,
2013-04-22 11:32:00,66.0,15.0,-100.00,East,82,7.0,14.0,14,0.00,,,0.00,,2013-04-22 17:32:00,
2013-04-22 11:40:00,70.0,13.0,-100.00,NW,326,6.0,17.0,11,0.00,,,0.00,,2013-04-22 17:40:00,
2013-04-22 12:01:00,70.0,13.0,-100.00,NW,326,6.0,17.0,11,0.00,,,0.00,,2013-04-22 18:01:00,
2013-04-22 12:12:00,70.0,13.0,-100.00,NW,326,6.0,17.0,11,0.00,,,0.00,,2013-04-22 18:12:00,
2013-04-22 12:21:00,70.0,13.0,-100.00,NW,326,6.0,17.0,11,0.00,,,0.00,,2013-04-22 18:21:00,
2013-04-22 12:32:00,70.0,13.0,-100.00,NW,326,6.0,17.0,11,0.00,,,0.00,,2013-04-22 18:32:00,
2013-04-22 12:40:00,71.0,14.0,-100.00,West,277,7.0,24.0,11,0.00,,,0.00,,2013-04-22 18:40:00,
2013-04-22 13:01:00,71.0,14.0,-100.00,West,277,7.0,24.0,11,0.00,,,0.00,,2013-04-22 19:01:00,
2013-04-22 13:12:00,71.0,14.0,-100.00,West,277,7.0,24.0,11,0.00,,,0.00,,2013-04-22 19:12:00,
2013-04-22 13:22:00,71.0,14.0,-100.00,West,277,7.0,24.0,11,0.00,,,0.00,,2013-04-22 19:22:00,
2013-04-22 13:32:00,71.0,14.0,-100.00,West,277,7.0,24.0,11,0.00,,,0.00,,2013-04-22 19:32:00,
2013-04-22 13:40:00,73.0,13.0,-100.00,WNW,284,6.0,22.0,10,0.00,,,0.00,,2013-04-22 19:40:00,
2013-04-22 14:02:00,73.0,13.0,-100.00,WNW,284,6.0,22.0,10,0.00,,,0.00,,2013-04-22 20:02:00,
2013-04-22 14:11:00,73.0,13.0,-100.00,WNW,284,6.0,22.0,10,0.00,,,0.00,,2013-04-22 20:11:00,
2013-04-22 14:22:00,73.0,13.0,-100.00,WNW,284,6.0,22.0,10,0.00,,,0.00,,2013-04-22 20:22:00,
2013-04-22 14:32:00,73.0,13.0,-100.00,WNW,284,6.0,22.0,10,0.00,,,0.00,,2013-04-22 20:32:00,
2013-04-22 14:40:00,73.0,11.0,-100.00,WNW,293,9.0,23.0,9,0.00,,,0.00,,2013-04-22 20:40:00,
2013-04-22 15:02:00,73.0,11.0,-100.00,WNW,293,9.0,23.0,9,0.00,,,0.00,,2013-04-22 21:02:00,
2013-04-22 15:11:00,73.0,11.0,-100.00,WNW,293,9.0,23.0,9,0.00,,,0.00,,2013-04-22 21:11:00,
2013-04-22 15:21:00,73.0,11.0,-100.00,WNW,293,9.0,23.0,9,0.00,,,0.00,,2013-04-22 21:21:00,
2013-04-22 15:32:00,73.0,11.0,-100.00,WNW,293,9.0,23.0,9,0.00,,,0.00,,2013-04-22 21:32:00,
2013-04-22 15:40:00,75.0,12.0,-100.00,SW,234,9.0,25.0,9,0.00,,,0.00,,2013-04-22 21:40:00,
2013-04-22 16:03:00,75.0,12.0,-100.00,SW,234,9.0,25.0,9,0.00,,,0.00,,2013-04-22 22:03:00,
2013-04-22 16:12:00,75.0,12.0,-100.00,SW,234,9.0,25.0,9,0.00,,,0.00,,2013-04-22 22:12:00,
2013-04-22 16:22:00,75.0,12.0,-100.00,SW,234,9.0,25.0,9,0.00,,,0.00,,2013-04-22 22:22:00,
2013-04-22 16:33:00,75.0,12.0,-100.00,SW,234,9.0,25.0,9,0.00,,,0.00,,2013-04-22 22:33:00,
2013-04-22 16:40:00,74.0,12.0,-100.00,WSW,253,9.0,23.0,9,0.00,,,0.00,,2013-04-22 22:40:00,
2013-04-22 17:02:00,74.0,12.0,-100.00,WSW,253,9.0,23.0,9,0.00,,,0.00,,2013-04-22 23:02:00,
2013-04-22 17:11:00,74.0,12.0,-100.00,WSW,253,9.0,23.0,9,0.00,,,0.00,,2013-04-22 23:11:00,
2013-04-22 17:21:00,74.0,12.0,-100.00,WSW,253,9.0,23.0,9,0.00,,,0.00,,2013-04-22 23:21:00,
2013-04-22 17:33:00,74.0,12.0,-100.00,WSW,253,9.0,23.0,9,0.00,,,0.00,,2013-04-22 23:33:00,
2013-04-22 17:40:00,72.0,12.0,-100.00,West,262,7.0,24.0,10,0.00,,,0.00,,2013-04-22 23:40:00,
2013-04-22 18:02:00,72.0,12.0,-100.00,West,262,7.0,24.0,10,0.00,,,0.00,,2013-04-23 00:02:00,
2013-04-22 18:12:00,72.0,12.0,-100.00,West,262,7.0,24.0,10,0.00,,,0.00,,2013-04-23 00:12:00,
2013-04-22 18:21:00,72.0,12.0,-100.00,West,262,7.0,24.0,10,0.00,,,0.00,,2013-04-23 00:21:00,
2013-04-22 18:32:00,72.0,12.0,-100.00,West,262,7.0,24.0,10,0.00,,,0.00,,2013-04-23 00:32:00,
2013-04-22 18:40:00,69.0,10.0,-100.00,WSW,245,8.0,19.0,10,0.00,,,0.00,,2013-04-23 00:40:00,
2013-04-22 19:01:00,69.0,10.0,-100.00,WSW,245,8.0,19.0,10,0.00,,,0.00,,2013-04-23 01:01:00,
2013-04-22 19:11:00,69.0,10.0,-100.00,WSW,245,8.0,19.0,10,0.00,,,0.00,,2013-04-23 01:11:00,
2013-04-22 19:21:00,69.0,10.0,-100.00,WSW,245,8.0,19.0,10,0.00,,,0.00,,2013-04-23 01:21:00,
2013-04-22 19:32:00,69.0,10.0,-100.00,WSW,245,8.0,19.0,10,0.00,,,0.00,,2013-04-23 01:32:00,
2013-04-22 19:40:00,65.0,11.0,-100.00,WSW,245,5.0,12.0,12,0.00,,,0.00,,2013-04-23 01:40:00,
2013-04-22 20:02:00,65.0,11.0,-100.00,WSW,245,5.0,12.0,12,0.00,,,0.00,,2013-04-23 02:02:00,
2013-04-22 20:12:00,65.0,11.0,-100.00,WSW,245,5.0,12.0,12,0.00,,,0.00,,2013-04-23 02:12:00,
2013-04-22 20:21:00,65.0,11.0,-100.00,WSW,245,5.0,12.0,12,0.00,,,0.00,,2013-04-23 02:21:00,
2013-04-22 20:32:00,65.0,11.0,-100.00,WSW,245,5.0,12.0,12,0.00,,,0.00,,2013-04-23 02:32:00,
2013-04-22 20:40:00,61.0,11.0,-100.00,NE,50,1.0,10.0,14,0.00,,,0.00,,2013-04-23 02:40:00,
2013-04-22 21:01:00,61.0,11.0,-100.00,NE,50,1.0,10.0,14,0.00,,,0.00,,2013-04-23 03:01:00,
2013-04-22 21:11:00,61.0,11.0,-100.00,NE,50,1.0,10.0,14,0.00,,,0.00,,2013-04-23 03:11:00,
2013-04-22 21:21:00,61.0,11.0,-100.00,NE,50,1.0,10.0,14,0.00,,,0.00,,2013-04-23 03:21:00,
2013-04-22 21:33:00,61.0,11.0,-100.00,NE,50,1.0,10.0,14,0.00,,,0.00,,2013-04-23 03:33:00,
2013-04-22 21:40:00,60.0,9.0,-100.00,SW,223,2.0,5.0,13,0.00,,,0.00,,2013-04-23 03:40:00,
2013-04-22 22:03:00,60.0,9.0,-100.00,SW,223,2.0,5.0,13,0.00,,,0.00,,2013-04-23 04:03:00,
2013-04-22 22:12:00,60.0,9.0,-100.00,SW,223,2.0,5.0,13,0.00,,,0.00,,2013-04-23 04:12:00,
2013-04-22 22:23:00,60.0,9.0,-100.00,SW,223,2.0,5.0,13,0.00,,,0.00,,2013-04-23 04:23:00,
2013-04-22 22:33:00,60.0,9.0,-100.00,SW,223,2.0,5.0,13,0.00,,,0.00,,2013-04-23 04:33:00,
2013-04-22 22:40:00,57.0,10.0,-100.00,West,269,3.0,7.0,15,0.00,,,0.00,,2013-04-23 04:40:00,
2013-04-22 23:02:00,57.0,10.0,-100.00,West,269,3.0,7.0,15,0.00,,,0.00,,2013-04-23 05:02:00,
2013-04-22 23:12:00,57.0,10.0,-100.00,West,269,3.0,7.0,15,0.00,,,0.00,,2013-04-23 05:12:00,
2013-04-22 23:22:00,57.0,10.0,-100.00,West,269,3.0,7.0,15,0.00,,,0.00,,2013-04-23 05:22:00,
2013-04-22 23:32:00,57.0,10.0,-100.00,West,269,3.0,7.0,15,0.00,,,0.00,,2013-04-23 05:32:00,
2013-04-22 23:40:00,56.0,10.0,-100.00,WSW,257,2.0,8.0,16,0.00,,,0.00,,2013-04-23 05:40:00,